createdAt,value
2018-11-22T00:00:44.602Z,15.17
2018-11-22T00:03:30.214Z,14.37
2018-11-22T00:05:59.468Z,14.37
2018-11-22T00:08:29.007Z,13.87
2018-11-22T00:10:59.156Z,14.53
2018-11-22T00:13:28.088Z,14.90
2018-11-22T00:15:57.129Z,13.23
2018-11-22T00:18:26.378Z,14.13
2018-11-22T00:20:55.927Z,13.87
2018-11-22T00:23:25.392Z,14.53
2018-11-22T00:26:14.604Z,15.40
2018-11-22T00:28:43.265Z,15.13
2018-11-22T00:31:12.237Z,15.23
2018-11-22T00:39:52.089Z,13.30
2018-11-22T00:42:21.495Z,13.40
2018-11-22T00:44:50.968Z,13.70
2018-11-22T00:47:20.294Z,14.77
2018-11-22T00:49:49.320Z,14.43
2018-11-22T00:52:18.626Z,13.67
2018-11-22T00:54:47.796Z,14.07
2018-11-22T00:57:16.744Z,13.73
2018-11-22T00:59:45.742Z,13.70
2018-11-22T01:02:14.855Z,13.83
2018-11-22T01:04:43.897Z,14.30
2018-11-22T01:07:12.509Z,14.27
2018-11-22T01:09:42.972Z,15.33
2018-11-22T01:12:12.242Z,14.17
2018-11-22T01:14:41.332Z,15.37
2018-11-22T01:17:09.972Z,13.90
2018-11-22T01:19:40.850Z,14.03
2018-11-22T01:22:09.804Z,14.90
2018-11-22T01:24:38.837Z,15.23
2018-11-22T01:27:08.334Z,13.37
2018-11-22T01:29:37.334Z,13.60
2018-11-22T01:32:12.061Z,13.87
2018-11-22T01:34:41.119Z,13.23
2018-11-22T01:37:10.075Z,14.43
2018-11-22T01:39:39.347Z,13.40
2018-11-22T01:42:14.089Z,13.77
2018-11-22T01:44:43.127Z,14.37
2018-11-22T01:47:12.116Z,13.80
2018-11-22T01:49:41.851Z,14.07
2018-11-22T01:52:10.920Z,13.47
2018-11-22T01:54:41.696Z,13.80
2018-11-22T01:57:11.058Z,13.20
2018-11-22T01:59:40.054Z,13.20
2018-11-22T02:02:09.044Z,12.90
2018-11-22T02:04:38.665Z,12.87
2018-11-22T02:07:08.090Z,14.37
2018-11-22T02:09:37.172Z,12.90
2018-11-22T02:12:06.889Z,13.20
2018-11-22T02:14:36.674Z,13.37
2018-11-22T02:17:05.702Z,12.73
2018-11-22T02:19:35.677Z,13.40
2018-11-22T02:22:04.672Z,13.73
2018-11-22T02:24:33.620Z,14.43
2018-11-22T02:27:04.444Z,14.23
2018-11-22T02:29:33.340Z,13.10
2018-11-22T02:32:09.486Z,15.23
2018-11-22T02:34:38.466Z,14.30
2018-11-22T02:37:07.162Z,14.57
2018-11-22T02:39:38.580Z,15.50
2018-11-22T02:42:07.581Z,14.17
2018-11-22T02:44:36.255Z,14.03
2018-11-22T02:47:05.889Z,13.90
2018-11-22T02:49:35.000Z,13.53
2018-11-22T02:52:04.053Z,14.87
2018-11-22T02:54:59.430Z,14.00
2018-11-22T02:57:28.358Z,14.70
2018-11-22T02:59:57.361Z,13.33
2018-11-22T03:02:27.739Z,14.37
2018-11-22T03:04:56.660Z,15.40
2018-11-22T03:07:26.529Z,16.37
2018-11-22T03:09:55.509Z,13.93
2018-11-22T03:12:26.709Z,14.27
2018-11-22T03:14:55.364Z,15.70
2018-11-22T03:17:24.802Z,14.33
2018-11-22T03:19:53.892Z,15.87
2018-11-22T03:22:22.558Z,14.87
2018-11-22T03:24:51.979Z,15.70
2018-11-22T03:27:21.013Z,14.57
2018-11-22T03:29:49.661Z,14.93
2018-11-22T03:32:19.064Z,14.43
2018-11-22T03:34:47.770Z,15.37
2018-11-22T03:37:17.347Z,16.33
2018-11-22T03:39:46.856Z,15.97
2018-11-22T03:42:16.021Z,15.93
2018-11-22T03:44:45.249Z,16.47
2018-11-22T03:47:14.153Z,16.93
2018-11-22T03:49:44.492Z,15.60
2018-11-22T03:52:13.091Z,15.60
2018-11-22T03:54:42.052Z,15.03
2018-11-22T03:57:11.072Z,15.47
2018-11-22T03:59:41.360Z,15.80
2018-11-22T04:02:11.364Z,15.73
2018-11-22T04:04:40.295Z,18.40
2018-11-22T04:07:13.079Z,19.17
2018-11-22T04:09:42.447Z,16.43
2018-11-22T04:12:12.161Z,19.00
2018-11-22T04:14:41.448Z,16.83
2018-11-22T04:17:10.899Z,17.87
2018-11-22T04:19:40.362Z,17.27
2018-11-22T04:22:09.365Z,18.00
2018-11-22T04:25:00.949Z,17.43
2018-11-22T04:27:30.384Z,16.37
2018-11-22T04:29:59.382Z,18.53
2018-11-22T04:32:28.678Z,17.70
2018-11-22T04:34:57.707Z,16.50
2018-11-22T04:37:31.299Z,18.00
2018-11-22T04:40:00.816Z,17.77
2018-11-22T04:42:29.502Z,16.90
2018-11-22T04:44:58.685Z,17.10
2018-11-22T04:47:28.215Z,19.03
2018-11-22T04:49:57.196Z,17.33
2018-11-22T04:52:26.349Z,16.90
2018-11-22T04:54:55.478Z,18.33
2018-11-22T04:57:41.339Z,18.67
2018-11-22T05:00:12.777Z,17.93
2018-11-22T05:02:41.695Z,16.80
2018-11-22T05:05:12.141Z,20.00
2018-11-22T05:07:47.519Z,17.67
2018-11-22T05:10:18.634Z,18.73
2018-11-22T05:12:48.609Z,17.67
2018-11-22T05:15:19.200Z,17.50
2018-11-22T05:18:09.046Z,18.00
2018-11-22T05:20:38.517Z,18.13
2018-11-22T05:23:07.860Z,17.90
2018-11-22T05:25:36.813Z,18.80
2018-11-22T05:28:05.700Z,18.63
2018-11-22T05:33:12.079Z,18.50
2018-11-22T05:35:41.323Z,18.37
2018-11-22T05:38:10.505Z,19.57
2018-11-22T05:40:39.773Z,19.73
2018-11-22T05:43:09.971Z,19.83
2018-11-22T05:45:39.195Z,18.93
2018-11-22T05:48:10.636Z,18.77
2018-11-22T05:50:39.944Z,18.33
2018-11-22T05:53:08.857Z,18.30
2018-11-22T05:55:40.427Z,19.60
2018-11-22T05:58:09.970Z,19.53
2018-11-22T06:00:38.988Z,18.80
2018-11-22T06:03:09.341Z,17.70
2018-11-22T06:05:38.405Z,17.67
2018-11-22T06:08:07.432Z,19.37
2018-11-22T06:10:41.406Z,18.20
2018-11-22T06:13:10.436Z,18.00
2018-11-22T06:15:39.804Z,18.07
2018-11-22T06:18:17.447Z,18.50
2018-11-22T06:20:46.087Z,20.40
2018-11-22T06:23:15.313Z,21.63
2018-11-22T06:25:44.925Z,21.70
2018-11-22T06:28:14.182Z,21.33
2018-11-22T06:30:43.409Z,19.20
2018-11-22T06:33:12.685Z,20.43
2018-11-22T06:35:43.157Z,19.10
2018-11-22T06:38:12.096Z,18.10
2018-11-22T06:40:41.020Z,20.03
2018-11-22T06:43:10.322Z,20.07
2018-11-22T06:45:39.379Z,21.37
2018-11-22T06:48:08.062Z,19.27
2018-11-22T06:50:38.598Z,21.00
2018-11-22T06:53:07.615Z,19.97
2018-11-22T06:55:36.649Z,22.07
2018-11-22T06:58:05.886Z,19.80
2018-11-22T07:00:35.186Z,19.53
2018-11-22T07:03:06.401Z,21.60
2018-11-22T07:05:35.457Z,20.13
2018-11-22T07:08:04.931Z,20.07
2018-11-22T07:10:35.078Z,18.67
2018-11-22T07:13:04.105Z,19.43
2018-11-22T07:15:33.370Z,19.00
2018-11-22T07:18:02.339Z,21.20
2018-11-22T07:20:31.313Z,20.00
2018-11-22T07:23:02.207Z,18.80
2018-11-22T07:25:31.715Z,19.70
2018-11-22T07:28:00.694Z,19.87
2018-11-22T07:30:34.252Z,21.77
2018-11-22T07:33:10.879Z,20.40
2018-11-22T07:35:39.926Z,20.43
2018-11-22T07:38:09.640Z,21.43
2018-11-22T07:40:38.893Z,20.77
2018-11-22T07:43:07.927Z,19.50
2018-11-22T07:45:38.900Z,20.10
2018-11-22T07:48:09.328Z,22.30
2018-11-22T07:50:38.714Z,18.37
2018-11-22T07:53:07.960Z,19.83
2018-11-22T07:55:37.409Z,19.97
2018-11-22T07:58:06.760Z,19.53
2018-11-22T08:00:38.598Z,22.17
2018-11-22T08:03:07.816Z,20.13
2018-11-22T08:05:38.139Z,19.70
2018-11-22T08:08:07.194Z,21.10
2018-11-22T08:10:45.107Z,19.20
2018-11-22T08:13:14.411Z,18.43
2018-11-22T08:15:43.704Z,18.07
2018-11-22T08:18:14.311Z,18.60
2018-11-22T08:20:43.302Z,18.90
2018-11-22T08:23:12.685Z,21.60
2018-11-22T08:25:42.402Z,18.93
2018-11-22T08:28:11.092Z,18.63
2018-11-22T08:30:39.739Z,21.93
2018-11-22T08:33:09.873Z,22.03
2018-11-22T08:35:38.821Z,19.40
2018-11-22T08:38:07.535Z,21.23
2018-11-22T08:40:36.602Z,22.67
2018-11-22T08:43:06.284Z,20.50
2018-11-22T08:45:35.288Z,20.43
2018-11-22T08:48:10.622Z,20.10
2018-11-22T08:50:39.676Z,21.30
2018-11-22T08:53:08.650Z,20.63
2018-11-22T08:55:37.283Z,22.23
2018-11-22T08:58:06.072Z,23.07
2018-11-22T09:00:35.297Z,21.50
2018-11-22T09:03:04.608Z,23.20
2018-11-22T09:05:35.580Z,22.60
2018-11-22T09:08:05.065Z,21.23
2018-11-22T09:10:34.313Z,22.20
2018-11-22T09:13:04.130Z,22.03
2018-11-22T09:15:34.114Z,22.27
2018-11-22T09:18:04.184Z,20.33
2018-11-22T09:20:34.111Z,21.20
2018-11-22T09:23:03.361Z,20.30
2018-11-22T09:25:32.020Z,23.13
2018-11-22T09:28:01.136Z,19.67
2018-11-22T09:30:31.598Z,20.13
2018-11-22T09:33:00.864Z,21.43
2018-11-22T09:35:32.425Z,19.60
2018-11-22T09:38:01.049Z,20.83
2018-11-22T09:40:31.399Z,20.43
2018-11-22T09:43:11.471Z,23.17
2018-11-22T09:45:41.124Z,22.40
2018-11-22T09:48:11.383Z,23.47
2018-11-22T09:50:41.342Z,21.83
2018-11-22T09:53:11.006Z,20.27
2018-11-22T09:55:39.974Z,21.20
2018-11-22T09:58:09.235Z,22.80
2018-11-22T10:00:37.913Z,20.67
2018-11-22T10:03:07.516Z,22.70
2018-11-22T10:05:37.231Z,21.53
2018-11-22T10:08:06.417Z,20.83
2018-11-22T10:10:38.855Z,22.80
2018-11-22T10:13:08.559Z,20.80
2018-11-22T10:15:38.775Z,23.83
2018-11-22T10:18:08.127Z,23.93
2018-11-22T10:20:37.114Z,22.20
2018-11-22T10:23:06.073Z,21.40
2018-11-22T10:25:36.105Z,21.20
2018-11-22T10:28:05.302Z,21.60
2018-11-22T10:30:34.908Z,22.50
2018-11-22T10:33:04.992Z,21.53
2018-11-22T10:35:35.700Z,22.47
2018-11-22T10:38:04.359Z,21.20
2018-11-22T10:40:38.096Z,22.60
2018-11-22T10:45:36.676Z,22.47
2018-11-22T10:48:07.478Z,19.23
2018-11-22T10:50:36.922Z,18.83
2018-11-22T10:53:06.645Z,18.00
2018-11-22T10:55:37.025Z,18.03
2018-11-22T10:58:06.663Z,17.63
2018-11-22T11:00:54.027Z,16.07
2018-11-22T11:03:40.246Z,16.40
2018-11-22T11:06:27.419Z,16.97
2018-11-22T11:08:56.340Z,16.37
2018-11-22T11:11:25.066Z,16.63
2018-11-22T11:13:54.285Z,17.87
2018-11-22T11:16:24.520Z,17.23
2018-11-22T11:18:53.797Z,17.77
2018-11-22T11:21:22.777Z,17.10
2018-11-22T11:23:52.058Z,18.40
2018-11-22T11:26:21.101Z,15.50
2018-11-22T11:28:50.433Z,17.67
2018-11-22T11:31:19.075Z,15.43
2018-11-22T11:33:47.735Z,16.00
2018-11-22T11:36:18.029Z,16.63
2018-11-22T11:38:46.621Z,16.43
2018-11-22T11:41:15.996Z,32.33
2018-11-22T11:43:44.948Z,15.23
2018-11-22T11:46:13.622Z,17.00
2018-11-22T11:48:42.546Z,15.80
2018-11-22T11:51:13.227Z,15.37
2018-11-22T11:53:42.459Z,15.37
2018-11-22T11:56:11.659Z,14.60
2018-11-22T11:58:41.399Z,15.30
2018-11-22T12:01:10.047Z,15.53
2018-11-22T12:03:39.037Z,14.37
2018-11-22T12:06:08.376Z,16.43
2018-11-22T12:08:37.055Z,13.80
2018-11-22T12:11:06.457Z,16.10
2018-11-22T12:13:35.412Z,16.20
2018-11-22T12:16:04.704Z,15.10
2018-11-22T12:18:36.985Z,15.50
2018-11-22T12:21:02.233Z,14.30
2018-11-22T12:23:36.360Z,14.47
2018-11-22T12:26:05.198Z,14.53
2018-11-22T12:28:34.429Z,15.63
2018-11-22T12:31:06.575Z,14.83
2018-11-22T12:33:40.517Z,14.23
2018-11-22T12:36:27.316Z,13.87
2018-11-22T12:38:55.982Z,13.43
2018-11-22T12:41:24.962Z,12.97
2018-11-22T12:43:54.397Z,14.30
2018-11-22T12:46:23.353Z,14.83
2018-11-22T12:48:52.386Z,13.57
2018-11-22T12:51:21.653Z,12.97
2018-11-22T12:53:58.469Z,13.53
2018-11-22T12:56:29.393Z,13.30
2018-11-22T12:58:58.695Z,12.93
2018-11-22T13:01:27.684Z,11.77
2018-11-22T13:04:03.847Z,13.03
2018-11-22T13:06:32.898Z,13.80
2018-11-22T13:09:01.836Z,22.50
2018-11-22T13:11:33.477Z,13.20
2018-11-22T13:14:02.437Z,15.10
2018-11-22T13:16:31.116Z,13.27
2018-11-22T13:19:00.123Z,13.23
2018-11-22T13:21:30.518Z,14.07
2018-11-22T13:23:59.530Z,14.23
2018-11-22T13:26:29.188Z,12.73
2018-11-22T13:28:58.515Z,14.43
2018-11-22T13:31:27.868Z,12.60
2018-11-22T13:33:56.555Z,11.67
2018-11-22T13:36:25.819Z,12.17
2018-11-22T13:38:55.070Z,12.00
2018-11-22T13:41:24.132Z,17.60
2018-11-22T13:43:53.774Z,10.97
2018-11-22T13:46:22.727Z,11.77
2018-11-22T13:48:51.750Z,11.90
2018-11-22T13:51:20.827Z,11.10
2018-11-22T13:53:50.085Z,13.77
2018-11-22T13:56:19.065Z,10.67
2018-11-22T13:58:49.311Z,12.13
2018-11-22T14:01:18.304Z,11.00
2018-11-22T14:03:47.866Z,11.07
2018-11-22T14:06:17.242Z,11.37
2018-11-22T14:08:46.336Z,10.93
2018-11-22T14:11:15.330Z,10.97
2018-11-22T14:13:45.630Z,11.13
2018-11-22T14:16:14.899Z,10.53
2018-11-22T14:18:44.173Z,11.03
2018-11-22T14:21:13.189Z,10.60
2018-11-22T14:23:42.616Z,11.33
2018-11-22T14:26:12.051Z,12.00
2018-11-22T14:28:41.145Z,13.07
2018-11-22T14:31:10.462Z,11.87
2018-11-22T14:33:39.918Z,12.77
2018-11-22T14:36:08.870Z,11.30
2018-11-22T14:38:37.883Z,12.53
2018-11-22T14:41:07.041Z,11.10
2018-11-22T14:43:36.313Z,11.13
2018-11-22T14:46:05.833Z,12.23
2018-11-22T14:48:36.039Z,12.80
2018-11-22T14:51:29.856Z,11.37
2018-11-22T14:53:58.807Z,11.33
2018-11-22T14:56:28.439Z,12.70
2018-11-22T14:58:58.035Z,12.90
2018-11-22T15:01:27.594Z,12.57
2018-11-22T15:03:56.531Z,12.43
2018-11-22T15:06:25.920Z,12.40
2018-11-22T15:08:55.977Z,12.60
2018-11-22T15:11:24.918Z,12.17
2018-11-22T15:13:53.881Z,13.40
2018-11-22T15:16:22.842Z,12.93
2018-11-22T15:18:52.106Z,12.87
2018-11-22T15:21:23.892Z,13.40
2018-11-22T15:23:52.623Z,14.07
2018-11-22T15:26:21.945Z,13.87
2018-11-22T15:28:59.548Z,12.83
2018-11-22T15:31:28.539Z,13.67
2018-11-22T15:33:57.480Z,13.80
2018-11-22T15:36:26.473Z,12.90
2018-11-22T15:38:55.673Z,12.43
2018-11-22T15:41:24.603Z,12.83
2018-11-22T15:43:53.566Z,11.83
2018-11-22T15:46:43.991Z,12.50
2018-11-22T15:49:12.687Z,14.23
2018-11-22T15:51:41.695Z,13.93
2018-11-22T15:54:10.698Z,12.83
2018-11-22T15:56:39.970Z,12.07
2018-11-22T15:59:09.403Z,12.90
2018-11-22T16:01:38.355Z,12.40
2018-11-22T16:04:07.006Z,13.13
2018-11-22T16:06:42.425Z,13.00
2018-11-22T16:09:12.011Z,12.17
2018-11-22T16:11:41.337Z,13.07
2018-11-22T16:14:10.383Z,12.70
2018-11-22T16:16:39.402Z,15.57
2018-11-22T16:19:08.718Z,18.40
2018-11-22T16:21:37.681Z,17.70
2018-11-22T16:24:08.038Z,15.77
2018-11-22T16:26:37.267Z,20.13
2018-11-22T16:29:07.859Z,21.67
2018-11-22T16:31:36.507Z,16.33
2018-11-22T16:34:05.543Z,15.37
2018-11-22T16:37:02.796Z,15.53
2018-11-22T16:39:31.480Z,14.23
2018-11-22T16:42:00.304Z,15.57
2018-11-22T16:44:29.316Z,14.97
2018-11-22T16:46:58.605Z,14.10
2018-11-22T16:49:27.377Z,14.83
2018-11-22T16:51:56.300Z,15.07
2018-11-22T16:54:25.218Z,14.00
2018-11-22T16:57:01.522Z,15.57
2018-11-22T16:59:30.460Z,14.43
2018-11-22T17:01:59.129Z,15.47
2018-11-22T17:04:28.121Z,14.60
2018-11-22T17:06:58.549Z,14.77
2018-11-22T17:09:27.825Z,14.57
2018-11-22T17:11:57.057Z,23.40
2018-11-22T17:14:26.320Z,21.67
2018-11-22T17:16:55.338Z,17.73
2018-11-22T17:19:25.022Z,17.10
2018-11-22T17:21:55.655Z,16.23
2018-11-22T17:24:24.664Z,23.87
2018-11-22T17:26:53.612Z,19.07
2018-11-22T17:29:27.197Z,16.47
2018-11-22T17:31:55.856Z,17.10
2018-11-22T17:34:25.150Z,16.17
2018-11-22T17:36:53.797Z,15.40
2018-11-22T17:42:00.518Z,30.03
2018-11-22T17:44:29.242Z,16.93
2018-11-22T17:46:58.206Z,15.20
2018-11-22T17:49:27.168Z,16.23
2018-11-22T17:52:08.419Z,15.80
2018-11-22T17:54:37.360Z,16.57
2018-11-22T17:57:07.620Z,16.00
2018-11-22T17:59:36.573Z,17.00
2018-11-22T18:02:06.989Z,15.60
2018-11-22T18:04:36.270Z,18.20
2018-11-22T18:07:05.327Z,16.57
2018-11-22T18:09:34.318Z,17.70
2018-11-22T18:12:03.587Z,18.17
2018-11-22T18:14:43.580Z,17.63
2018-11-22T18:17:12.261Z,17.50
2018-11-22T18:19:41.349Z,20.17
2018-11-22T18:22:09.999Z,18.40
2018-11-22T18:24:39.674Z,18.90
2018-11-22T18:27:08.633Z,19.73
2018-11-22T18:29:37.638Z,19.90
2018-11-22T18:32:07.207Z,21.70
2018-11-22T18:34:41.208Z,20.30
2018-11-22T18:37:10.201Z,18.77
2018-11-22T18:39:39.293Z,18.80
2018-11-22T18:42:08.276Z,19.53
2018-11-22T18:44:37.542Z,19.43
2018-11-22T18:49:45.781Z,18.53
2018-11-22T18:52:15.046Z,20.07
2018-11-22T18:54:44.308Z,19.17
2018-11-22T18:57:13.241Z,19.37
2018-11-22T18:59:42.366Z,20.20
2018-11-22T19:02:11.103Z,20.23
2018-11-22T19:04:40.320Z,20.57
2018-11-22T19:07:10.549Z,19.83
2018-11-22T19:09:40.115Z,17.43
2018-11-22T19:12:09.404Z,17.90
2018-11-22T19:15:04.202Z,19.67
2018-11-22T19:17:33.493Z,19.30
2018-11-22T19:20:08.848Z,18.77
2018-11-22T19:22:31.484Z,18.27
2018-11-22T19:25:00.129Z,19.23
2018-11-22T19:27:30.402Z,19.37
2018-11-22T19:29:59.677Z,19.50
2018-11-22T19:32:28.357Z,20.13
2018-11-22T19:34:57.043Z,19.07
2018-11-22T19:37:26.406Z,19.67
2018-11-22T19:39:55.458Z,20.00
2018-11-22T19:42:24.218Z,20.70
2018-11-22T19:44:54.016Z,19.47
2018-11-22T19:47:22.995Z,18.17
2018-11-22T19:49:51.951Z,20.20
2018-11-22T19:52:20.934Z,19.10
2018-11-22T19:54:50.211Z,19.97
2018-11-22T19:57:19.469Z,19.47
2018-11-22T19:59:49.135Z,19.13
2018-11-22T20:02:18.037Z,22.70
2018-11-22T20:04:46.993Z,20.73
2018-11-22T20:07:16.566Z,18.60
2018-11-22T20:09:45.213Z,18.77
2018-11-22T20:12:16.598Z,20.13
2018-11-22T20:14:46.525Z,18.73
2018-11-22T20:17:16.501Z,19.57
2018-11-22T20:19:45.436Z,20.93
2018-11-22T20:22:14.519Z,20.33
2018-11-22T20:24:43.788Z,20.10
2018-11-22T20:27:22.961Z,20.73
2018-11-22T20:29:51.911Z,18.83
2018-11-22T20:32:21.176Z,18.63
2018-11-22T20:34:51.838Z,19.43
2018-11-22T20:37:20.610Z,20.87
2018-11-22T20:39:49.621Z,20.70
2018-11-22T20:42:18.952Z,19.90
2018-11-22T20:44:48.545Z,19.03
2018-11-22T20:47:17.765Z,19.17
2018-11-22T20:49:47.047Z,19.23
2018-11-22T20:52:16.259Z,20.33
2018-11-22T20:54:45.277Z,19.97
2018-11-22T20:57:14.836Z,20.37
2018-11-22T20:59:45.379Z,20.60
2018-11-22T21:02:14.716Z,22.17
2018-11-22T21:04:44.008Z,21.63
2018-11-22T21:07:13.005Z,23.90
2018-11-22T21:09:41.780Z,21.70
2018-11-22T21:12:10.714Z,22.30
2018-11-22T21:14:39.946Z,25.87
2018-11-22T21:17:09.541Z,25.00
2018-11-22T21:19:38.565Z,23.63
2018-11-22T21:22:13.104Z,22.40
2018-11-22T21:24:43.480Z,18.67
2018-11-22T21:27:12.149Z,26.20
2018-11-22T21:29:41.071Z,25.57
2018-11-22T21:32:11.087Z,30.87
2018-11-22T21:34:40.094Z,23.47
2018-11-22T21:37:09.162Z,24.33
2018-11-22T21:39:38.721Z,24.97
2018-11-22T21:42:07.786Z,23.50
2018-11-22T21:44:37.043Z,23.63
2018-11-22T21:47:05.969Z,24.90
2018-11-22T21:49:36.349Z,24.40
2018-11-22T21:52:05.350Z,22.00
2018-11-22T21:54:34.342Z,22.87
2018-11-22T21:57:04.131Z,23.67
2018-11-22T21:59:33.350Z,22.47
2018-11-22T22:02:02.395Z,22.30
2018-11-22T22:04:39.579Z,25.40
2018-11-22T22:07:09.056Z,22.93
2018-11-22T22:09:38.178Z,23.50
2018-11-22T22:12:10.466Z,22.93
2018-11-22T22:14:41.383Z,21.53
2018-11-22T22:17:10.362Z,21.93
2018-11-22T22:19:41.742Z,23.17
2018-11-22T22:22:10.710Z,23.30
2018-11-22T22:24:39.369Z,23.07
2018-11-22T22:27:13.820Z,21.60
2018-11-22T22:29:43.112Z,22.53
2018-11-22T22:32:12.101Z,22.17
2018-11-22T22:34:41.097Z,21.40
2018-11-22T22:37:10.365Z,21.53
2018-11-22T22:39:39.378Z,23.30
2018-11-22T22:42:08.053Z,23.70
2018-11-22T22:44:37.535Z,21.80
2018-11-22T22:47:08.069Z,23.93
2018-11-22T22:49:37.289Z,23.97
2018-11-22T22:52:08.268Z,24.40
2018-11-22T22:54:43.307Z,23.37
2018-11-22T22:57:12.274Z,21.80
2018-11-22T22:59:41.541Z,21.40
2018-11-22T23:02:20.339Z,23.07
2018-11-22T23:04:52.278Z,21.20
2018-11-22T23:07:21.507Z,21.93
2018-11-22T23:09:50.774Z,22.07
2018-11-22T23:12:20.965Z,21.87
2018-11-22T23:14:49.170Z,22.50
2018-11-22T23:17:28.307Z,22.57
2018-11-22T23:19:57.331Z,21.47
2018-11-22T23:22:26.367Z,23.30
2018-11-22T23:24:55.966Z,22.27
2018-11-22T23:27:25.022Z,21.90
2018-11-22T23:29:54.465Z,23.73
2018-11-22T23:32:23.767Z,22.67
2018-11-22T23:34:52.824Z,22.77
2018-11-22T23:37:22.079Z,22.83
2018-11-22T23:39:51.726Z,22.70
2018-11-22T23:42:25.675Z,23.40
2018-11-22T23:44:54.322Z,23.07
2018-11-22T23:47:23.006Z,20.70
2018-11-22T23:49:52.366Z,21.97
2018-11-22T23:52:22.551Z,21.83
2018-11-22T23:54:51.251Z,24.23
2018-11-22T23:57:29.302Z,20.30
2018-11-22T23:59:57.992Z,21.70
